Time;durP1;ratioP1;P1;durP2;ratioP2;P2;SDS_P1;SDS_P2;PMS_P1;PMS_P2;Temp;Humidity;BMP_temperature;BMP_pressure;BME280_temperature;BME280_humidity;BME280_pressure;Samples;Min_cycle;Max_cycle;Signal;HPM_P1;HPM_P2
2023/11/02 00:00:36;;;;;;;2.73;1.10;;;;;;;;;;4994303;28;20217;-87
2023/11/02 00:03:09;;;;;;;5.20;1.50;;;;;;;;;;4977159;28;20232;-86
2023/11/02 00:05:53;;;;;;;3.43;1.77;;;;;;;;;;4960553;28;20233;-89
2023/11/02 00:08:21;;;;;;;1.83;1.20;;;;;;;;;;4995681;28;20230;-89
2023/11/02 00:10:49;;;;;;;3.43;1.50;;;;;;;;;;4960294;28;20225;-88
2023/11/02 00:13:22;;;;;;;1.90;1.30;;;;;;;;;;4969322;28;20217;-87
2023/11/02 00:15:48;;;;;;;4.50;1.50;;;;;;;;;;4984263;28;20277;-89
2023/11/02 00:18:16;;;;;;;2.13;1.30;;;;;;;;;;4988274;28;20257;-86
2023/11/02 00:20:41;;;;;;;4.07;1.30;;;;;;;;;;4963918;28;20276;-88
2023/11/02 00:23:07;;;;;;;2.30;1.27;;;;;;;;;;4959601;28;20214;-87
2023/11/02 00:26:00;;;;;;;3.10;1.40;;;;;;;;;;4986481;28;20209;-86
2023/11/02 00:28:25;;;;;;;4.60;1.30;;;;;;;;;;4991970;28;20226;-87
2023/11/02 00:30:55;;;;;;;2.57;1.50;;;;;;;;;;4960861;28;20308;-88
2023/11/02 00:33:24;;;;;;;1.37;1.10;;;;;;;;;;4994731;28;20245;-88
2023/11/02 00:35:51;;;;;;;3.63;1.47;;;;;;;;;;4995451;28;20198;-87
2023/11/02 00:38:26;;;;;;;3.93;1.33;;;;;;;;;;5012182;28;20285;-87
2023/11/02 00:40:55;;;;;;;1.93;1.33;;;;;;;;;;5005220;28;20213;-88
2023/11/02 00:43:22;;;;;;;2.13;1.20;;;;;;;;;;5005281;28;20237;-87
2023/11/02 00:45:49;;;;;;;5.37;1.33;;;;;;;;;;4997174;28;20232;-89
2023/11/02 00:48:19;;;;;;;2.97;1.40;;;;;;;;;;4990970;28;20217;-88
2023/11/02 00:50:59;;;;;;;2.53;1.20;;;;;;;;;;4996333;28;20234;-89
2023/11/02 00:53:25;;;;;;;3.37;1.43;;;;;;;;;;4997387;28;20217;-87
2023/11/02 00:55:54;;;;;;;2.47;1.27;;;;;;;;;;4979999;28;20657;-88
2023/11/02 00:58:28;;;;;;;3.60;1.30;;;;;;;;;;4993985;28;20222;-87
2023/11/02 01:00:57;;;;;;;3.50;1.50;;;;;;;;;;4989151;28;20221;-87
2023/11/02 01:03:27;;;;;;;1.33;1.10;;;;;;;;;;4988795;28;20233;-87
2023/11/02 01:05:53;;;;;;;3.20;1.37;;;;;;;;;;4953715;28;20232;-88
2023/11/02 01:08:28;;;;;;;3.27;1.33;;;;;;;;;;4961342;28;20226;-87
2023/11/02 01:10:56;;;;;;;3.37;1.50;;;;;;;;;;4962842;28;20231;-87
2023/11/02 01:13:24;;;;;;;3.30;1.40;;;;;;;;;;4981199;28;20217;-88
2023/11/02 01:16:09;;;;;;;1.60;1.30;;;;;;;;;;4960013;28;20232;-89
2023/11/02 01:18:38;;;;;;;2.83;1.50;;;;;;;;;;4976663;28;20295;-90
2023/11/02 01:21:07;;;;;;;3.10;1.40;;;;;;;;;;4960973;28;20279;-89
2023/11/02 01:23:33;;;;;;;4.40;1.40;;;;;;;;;;4975275;28;20257;-88
2023/11/02 01:26:08;;;;;;;2.37;1.40;;;;;;;;;;4962031;28;20229;-87
2023/11/02 01:28:48;;;;;;;3.43;1.30;;;;;;;;;;4991226;28;20222;-88
2023/11/02 01:31:18;;;;;;;2.83;1.60;;;;;;;;;;4955532;28;20229;-87
2023/11/02 01:33:58;;;;;;;2.63;1.30;;;;;;;;;;4975667;28;20292;-88
2023/11/02 01:36:30;;;;;;;4.20;1.60;;;;;;;;;;4992092;28;20233;-88
2023/11/02 01:39:00;;;;;;;3.37;1.30;;;;;;;;;;4972276;28;20233;-88
2023/11/02 01:42:14;;;;;;;4.63;1.60;;;;;;;;;;4982372;28;20253;-88
2023/11/02 01:44:41;;;;;;;2.87;1.53;;;;;;;;;;4986236;28;20229;-87
2023/11/02 01:47:24;;;;;;;1.70;1.13;;;;;;;;;;4954693;28;20288;-88
2023/11/02 01:50:08;;;;;;;5.03;1.60;;;;;;;;;;4975830;28;20674;-88
2023/11/02 01:52:56;;;;;;;3.07;1.40;;;;;;;;;;4980061;28;20663;-88
2023/11/02 01:55:45;;;;;;;2.53;1.30;;;;;;;;;;4985776;28;20357;-87
2023/11/02 01:58:35;;;;;;;4.17;1.73;;;;;;;;;;4953993;28;20226;-87
2023/11/02 02:01:27;;;;;;;6.40;1.70;;;;;;;;;;4967231;28;20280;-87
2023/11/02 02:04:15;;;;;;;4.00;1.70;;;;;;;;;;4991543;28;20229;-87
2023/11/02 02:06:58;;;;;;;3.30;1.53;;;;;;;;;;4978499;28;20702;-88
2023/11/02 02:09:53;;;;;;;3.20;1.50;;;;;;;;;;4970926;28;20222;-85
2023/11/02 02:12:50;;;;;;;1.53;1.00;;;;;;;;;;4971000;28;20229;-88
2023/11/02 02:15:31;;;;;;;4.80;1.50;;;;;;;;;;4979204;28;20217;-87
2023/11/02 02:18:20;;;;;;;4.07;1.50;;;;;;;;;;4995897;28;20308;-88
2023/11/02 02:20:48;;;;;;;5.47;1.57;;;;;;;;;;4951180;28;20225;-88
2023/11/02 02:23:29;;;;;;;2.53;1.60;;;;;;;;;;4979172;28;20321;-88
2023/11/02 02:26:22;;;;;;;2.43;1.40;;;;;;;;;;4977495;28;20225;-88
2023/11/02 02:28:55;;;;;;;4.20;1.40;;;;;;;;;;4971700;28;20214;-86
2023/11/02 02:31:44;;;;;;;4.60;1.63;;;;;;;;;;4988917;28;20224;-87
2023/11/02 02:34:42;;;;;;;4.73;1.60;;;;;;;;;;4992802;28;20233;-87
2023/11/02 02:37:25;;;;;;;3.43;1.63;;;;;;;;;;4972945;28;20266;-88
2023/11/02 02:39:54;;;;;;;3.53;1.70;;;;;;;;;;4970133;28;20292;-88
2023/11/02 02:42:23;;;;;;;2.70;1.30;;;;;;;;;;4980783;28;20246;-88
2023/11/02 02:44:53;;;;;;;5.03;1.40;;;;;;;;;;4954876;28;20248;-87
2023/11/02 02:47:19;;;;;;;2.17;1.30;;;;;;;;;;4978018;28;20285;-88
2023/11/02 02:49:49;;;;;;;2.87;1.30;;;;;;;;;;4972060;28;20233;-87
2023/11/02 02:52:19;;;;;;;2.63;1.43;;;;;;;;;;4977859;28;20591;-85
2023/11/02 02:54:49;;;;;;;3.33;1.40;;;;;;;;;;4978607;28;20654;-89
2023/11/02 02:57:17;;;;;;;2.30;1.67;;;;;;;;;;4985050;28;20225;-89
2023/11/02 02:59:52;;;;;;;1.30;1.20;;;;;;;;;;4983417;28;20221;-85
2023/11/02 03:02:21;;;;;;;3.70;1.43;;;;;;;;;;4974132;28;20237;-88
2023/11/02 03:04:47;;;;;;;3.27;1.10;;;;;;;;;;4975095;28;20221;-88
2023/11/02 03:07:17;;;;;;;5.23;1.67;;;;;;;;;;4977268;28;20296;-88
2023/11/02 03:09:44;;;;;;;3.83;1.63;;;;;;;;;;4991753;28;20226;-89
2023/11/02 03:12:10;;;;;;;2.97;1.70;;;;;;;;;;4977269;28;20606;-86
2023/11/02 03:14:38;;;;;;;2.53;1.73;;;;;;;;;;4975165;28;20305;-87
2023/11/02 03:17:12;;;;;;;3.13;1.50;;;;;;;;;;4963763;28;20308;-87
2023/11/02 03:19:38;;;;;;;5.77;2.07;;;;;;;;;;4962023;28;20239;-89
2023/11/02 03:22:06;;;;;;;3.70;1.70;;;;;;;;;;4994051;28;20225;-85
2023/11/02 03:24:40;;;;;;;5.67;1.77;;;;;;;;;;4979113;28;20237;-87
2023/11/02 03:27:06;;;;;;;5.93;2.00;;;;;;;;;;4982660;28;20225;-88
2023/11/02 03:30:09;;;;;;;2.67;1.80;;;;;;;;;;4989677;28;20273;-85
2023/11/02 03:33:16;;;;;;;3.03;1.57;;;;;;;;;;4990468;28;20586;-88
2023/11/02 03:36:11;;;;;;;3.87;1.73;;;;;;;;;;4976834;28;20218;-86
2023/11/02 03:39:00;;;;;;;1.93;1.73;;;;;;;;;;4956360;28;20674;-87
2023/11/02 03:41:42;;;;;;;1.83;1.47;;;;;;;;;;4985111;28;20205;-87
2023/11/02 03:44:38;;;;;;;1.63;1.30;;;;;;;;;;4996262;28;20241;-89
2023/11/02 03:47:21;;;;;;;4.43;1.50;;;;;;;;;;5011267;28;20221;-86
2023/11/02 03:49:59;;;;;;;2.20;1.37;;;;;;;;;;4988573;28;20221;-87
2023/11/02 03:52:44;;;;;;;2.23;1.40;;;;;;;;;;4991895;28;20229;-87
2023/11/02 03:55:18;;;;;;;4.87;1.60;;;;;;;;;;4955584;28;20269;-86
2023/11/02 03:58:13;;;;;;;3.60;1.90;;;;;;;;;;4973505;28;20243;-85
2023/11/02 04:04:40;;;;;;;2.20;1.50;;;;;;;;;;4974093;28;20240;-86
2023/11/02 04:07:40;;;;;;;2.47;1.40;;;;;;;;;;4972073;28;20229;-85
2023/11/02 04:10:07;;;;;;;2.70;1.37;;;;;;;;;;4989419;28;20576;-85
2023/11/02 04:12:52;;;;;;;3.57;1.70;;;;;;;;;;4969505;28;20341;-86
2023/11/02 04:15:23;;;;;;;3.87;1.40;;;;;;;;;;4988857;28;20225;-89
2023/11/02 04:17:49;;;;;;;3.03;1.33;;;;;;;;;;4989022;28;20229;-85
2023/11/02 04:20:17;;;;;;;2.93;1.30;;;;;;;;;;4973050;28;20225;-87
2023/11/02 04:22:45;;;;;;;1.80;1.60;;;;;;;;;;4969099;28;20221;-87
2023/11/02 04:25:13;;;;;;;2.90;1.50;;;;;;;;;;4994990;28;20307;-84
2023/11/02 04:27:41;;;;;;;1.97;1.33;;;;;;;;;;4965012;28;20691;-86
2023/11/02 04:30:09;;;;;;;4.03;1.67;;;;;;;;;;4978310;28;20210;-85
2023/11/02 04:32:35;;;;;;;3.50;2.70;;;;;;;;;;4977501;28;20237;-86
2023/11/02 04:35:00;;;;;;;6.80;4.00;;;;;;;;;;4977085;28;20284;-87
2023/11/02 04:37:26;;;;;;;7.10;5.23;;;;;;;;;;4981798;28;20247;-85
2023/11/02 04:39:54;;;;;;;5.03;4.53;;;;;;;;;;5003315;28;20212;-86
2023/11/02 04:42:28;;;;;;;3.13;1.63;;;;;;;;;;5008796;28;20245;-85
2023/11/02 04:44:56;;;;;;;3.47;1.87;;;;;;;;;;4981559;28;20264;-85
2023/11/02 04:47:22;;;;;;;2.27;1.43;;;;;;;;;;4981565;28;20224;-89
2023/11/02 04:49:53;;;;;;;1.93;1.43;;;;;;;;;;4966748;28;20217;-80
2023/11/02 04:52:36;;;;;;;3.03;1.60;;;;;;;;;;4984943;28;20221;-77
2023/11/02 04:55:03;;;;;;;3.40;1.23;;;;;;;;;;4994699;28;20221;-79
2023/11/02 04:57:31;;;;;;;1.47;1.37;;;;;;;;;;4989136;28;20221;-80
2023/11/02 04:59:59;;;;;;;1.93;1.67;;;;;;;;;;4974294;28;20226;-79
2023/11/02 05:02:27;;;;;;;4.53;1.60;;;;;;;;;;4987135;28;20694;-78
2023/11/02 05:04:55;;;;;;;1.83;1.00;;;;;;;;;;4967180;28;20598;-79
2023/11/02 05:07:20;;;;;;;2.17;1.10;;;;;;;;;;4957584;28;20225;-77
2023/11/02 05:09:48;;;;;;;4.87;1.80;;;;;;;;;;4956734;28;20600;-78
2023/11/02 05:12:16;;;;;;;1.70;1.10;;;;;;;;;;4955286;28;20274;-80
2023/11/02 05:14:43;;;;;;;1.63;1.07;;;;;;;;;;4974967;28;20221;-79
2023/11/02 05:17:09;;;;;;;2.23;1.10;;;;;;;;;;4958477;28;20230;-78
2023/11/02 05:19:40;;;;;;;1.47;1.00;;;;;;;;;;4991922;28;20221;-80
2023/11/02 05:22:06;;;;;;;3.13;1.00;;;;;;;;;;4991625;28;20279;-78
2023/11/02 05:24:31;;;;;;;2.10;1.00;;;;;;;;;;4957250;28;20635;-78
2023/11/02 05:26:59;;;;;;;2.00;1.30;;;;;;;;;;4978214;28;20217;-79
2023/11/02 05:29:25;;;;;;;2.77;1.33;;;;;;;;;;4973893;28;20221;-78
2023/11/02 05:31:51;;;;;;;2.47;1.40;;;;;;;;;;4982361;28;20724;-78
2023/11/02 05:34:19;;;;;;;1.97;0.93;;;;;;;;;;4978301;28;20223;-80
2023/11/02 05:36:45;;;;;;;1.13;1.00;;;;;;;;;;4975977;28;20642;-80
2023/11/02 05:39:11;;;;;;;1.80;0.83;;;;;;;;;;4957357;28;20252;-80
2023/11/02 05:41:37;;;;;;;3.60;1.00;;;;;;;;;;5006064;28;20222;-79
2023/11/02 05:44:03;;;;;;;1.57;1.10;;;;;;;;;;4959837;28;20229;-78
2023/11/02 05:46:29;;;;;;;2.17;1.10;;;;;;;;;;4970287;28;20764;-80
2023/11/02 05:48:57;;;;;;;3.27;1.03;;;;;;;;;;4958284;28;20512;-79
2023/11/02 05:51:23;;;;;;;2.30;1.10;;;;;;;;;;4990240;28;20842;-78
2023/11/02 05:53:48;;;;;;;1.17;1.00;;;;;;;;;;4972893;28;20225;-79
2023/11/02 05:56:17;;;;;;;2.20;1.10;;;;;;;;;;4977248;28;20224;-80
2023/11/02 05:58:46;;;;;;;3.07;1.27;;;;;;;;;;4974824;28;20262;-82
2023/11/02 06:01:12;;;;;;;7.30;1.10;;;;;;;;;;4951723;28;20233;-79
2023/11/02 06:03:38;;;;;;;2.77;1.43;;;;;;;;;;4989149;28;20873;-79
2023/11/02 06:06:07;;;;;;;1.10;0.90;;;;;;;;;;4957100;28;20225;-80
2023/11/02 06:08:32;;;;;;;1.33;0.80;;;;;;;;;;4962719;28;20638;-80
2023/11/02 06:10:58;;;;;;;3.03;1.13;;;;;;;;;;4972984;28;20229;-79
2023/11/02 06:13:26;;;;;;;2.00;1.00;;;;;;;;;;4972207;28;20229;-79
2023/11/02 06:15:52;;;;;;;0.97;0.87;;;;;;;;;;4974302;28;20226;-80
2023/11/02 06:18:19;;;;;;;2.20;1.10;;;;;;;;;;4958878;28;20245;-78
2023/11/02 06:20:47;;;;;;;2.47;0.90;;;;;;;;;;4988185;28;20716;-79
2023/11/02 06:23:16;;;;;;;1.53;0.93;;;;;;;;;;4972439;28;20226;-79
2023/11/02 06:25:44;;;;;;;2.53;1.00;;;;;;;;;;4960561;28;20240;-80
2023/11/02 06:28:10;;;;;;;2.83;0.83;;;;;;;;;;4992860;28;20225;-79
2023/11/02 06:30:36;;;;;;;3.83;1.10;;;;;;;;;;4971650;28;20224;-78
2023/11/02 06:33:03;;;;;;;1.50;0.97;;;;;;;;;;4973609;28;20586;-77
2023/11/02 06:35:29;;;;;;;2.63;0.90;;;;;;;;;;4986669;28;20234;-78
2023/11/02 06:37:58;;;;;;;3.80;1.03;;;;;;;;;;4976736;28;20910;-79
2023/11/02 06:40:24;;;;;;;1.07;0.83;;;;;;;;;;4953140;28;20222;-78
2023/11/02 06:42:50;;;;;;;1.57;0.70;;;;;;;;;;4969930;28;20260;-80
2023/11/02 06:45:19;;;;;;;2.40;1.07;;;;;;;;;;4972716;28;20224;-79
2023/11/02 06:47:45;;;;;;;1.60;0.90;;;;;;;;;;4974850;28;20284;-79
2023/11/02 06:50:13;;;;;;;1.63;1.00;;;;;;;;;;4975508;28;20228;-80
2023/11/02 06:52:39;;;;;;;1.67;0.70;;;;;;;;;;4978954;28;20596;-79
2023/11/02 06:55:05;;;;;;;1.80;0.87;;;;;;;;;;4976599;28;20217;-80
2023/11/02 06:57:31;;;;;;;3.00;1.00;;;;;;;;;;4961100;28;20755;-81
2023/11/02 06:59:56;;;;;;;3.83;0.77;;;;;;;;;;4961714;28;20218;-78
2023/11/02 07:02:22;;;;;;;1.50;0.80;;;;;;;;;;4975160;28;20218;-80
2023/11/02 07:04:57;;;;;;;1.43;0.90;;;;;;;;;;4975770;28;21166;-79
2023/11/02 07:07:23;;;;;;;3.13;0.83;;;;;;;;;;4987400;28;20232;-79
2023/11/02 07:09:50;;;;;;;1.07;0.70;;;;;;;;;;4989503;28;20228;-79
2023/11/02 07:12:19;;;;;;;1.50;0.97;;;;;;;;;;4961738;28;20622;-80
2023/11/02 07:14:46;;;;;;;2.53;0.93;;;;;;;;;;4991086;28;20215;-79
2023/11/02 07:17:15;;;;;;;2.63;0.80;;;;;;;;;;4979281;28;20229;-80
2023/11/02 07:19:41;;;;;;;0.93;0.77;;;;;;;;;;4977355;28;20225;-80
2023/11/02 07:22:12;;;;;;;1.33;0.70;;;;;;;;;;4968804;28;20241;-78
2023/11/02 07:24:37;;;;;;;1.97;0.90;;;;;;;;;;4966214;28;20348;-80
2023/11/02 07:27:07;;;;;;;1.53;0.80;;;;;;;;;;4974635;28;20258;-78
2023/11/02 07:29:33;;;;;;;5.40;0.93;;;;;;;;;;5006990;28;20365;-79
2023/11/02 07:31:59;;;;;;;0.73;0.60;;;;;;;;;;4990219;28;20214;-78
2023/11/02 07:34:24;;;;;;;1.27;0.80;;;;;;;;;;5009742;28;20205;-79
2023/11/02 07:36:54;;;;;;;1.70;0.73;;;;;;;;;;4988213;28;20210;-78
2023/11/02 07:39:21;;;;;;;3.53;0.87;;;;;;;;;;4982963;28;20296;-77
2023/11/02 07:41:47;;;;;;;1.13;0.60;;;;;;;;;;4988089;28;20300;-79
2023/11/02 07:44:15;;;;;;;0.83;0.70;;;;;;;;;;4986569;28;20662;-78
2023/11/02 07:46:43;;;;;;;1.90;0.97;;;;;;;;;;4950780;28;20232;-78
2023/11/02 07:49:09;;;;;;;2.77;0.90;;;;;;;;;;4976865;28;20600;-80
2023/11/02 07:51:35;;;;;;;1.87;0.90;;;;;;;;;;4975551;28;20690;-81
2023/11/02 07:54:01;;;;;;;2.07;0.80;;;;;;;;;;4978272;28;20221;-80
2023/11/02 07:56:27;;;;;;;2.50;0.80;;;;;;;;;;4960338;28;20300;-80
2023/11/02 07:58:53;;;;;;;2.10;0.80;;;;;;;;;;5008235;28;20616;-79
2023/11/02 08:01:19;;;;;;;1.47;0.97;;;;;;;;;;4962023;28;20229;-81
2023/11/02 08:03:47;;;;;;;1.07;0.80;;;;;;;;;;4943400;28;20715;-79
2023/11/02 08:06:13;;;;;;;1.77;0.70;;;;;;;;;;4977463;28;20805;-80
2023/11/02 08:08:41;;;;;;;1.53;0.60;;;;;;;;;;4984448;28;20234;-79
2023/11/02 08:11:06;;;;;;;3.50;0.80;;;;;;;;;;4977641;28;20244;-80
2023/11/02 08:13:34;;;;;;;1.50;0.90;;;;;;;;;;4992635;28;20229;-79
2023/11/02 08:16:00;;;;;;;3.20;0.90;;;;;;;;;;4976691;28;20229;-79
2023/11/02 08:18:28;;;;;;;1.23;0.70;;;;;;;;;;4997065;28;20244;-78
2023/11/02 08:20:54;;;;;;;1.03;0.60;;;;;;;;;;4971902;28;20218;-79
2023/11/02 08:23:20;;;;;;;1.30;0.93;;;;;;;;;;4976193;28;20300;-79
2023/11/02 08:25:48;;;;;;;2.07;1.30;;;;;;;;;;4958437;28;20222;-80
2023/11/02 08:28:20;;;;;;;1.30;0.90;;;;;;;;;;4992430;28;20619;-82
2023/11/02 08:30:46;;;;;;;1.87;1.10;;;;;;;;;;4997223;28;20225;-79
2023/11/02 08:33:23;;;;;;;1.50;0.80;;;;;;;;;;4962679;28;20754;-78
2023/11/02 08:35:51;;;;;;;1.27;0.70;;;;;;;;;;4996819;28;20221;-79
2023/11/02 08:38:19;;;;;;;1.33;0.70;;;;;;;;;;4946315;28;20229;-79
2023/11/02 08:40:45;;;;;;;2.07;0.73;;;;;;;;;;4977110;28;20225;-80
2023/11/02 08:43:15;;;;;;;1.33;0.60;;;;;;;;;;4975373;28;20229;-77
2023/11/02 08:45:41;;;;;;;1.93;0.70;;;;;;;;;;4982754;28;20266;-80
2023/11/02 08:48:07;;;;;;;1.63;0.80;;;;;;;;;;4960652;28;20295;-78
2023/11/02 08:50:33;;;;;;;7.20;0.70;;;;;;;;;;4994438;28;20291;-77
2023/11/02 08:52:59;;;;;;;3.10;0.90;;;;;;;;;;4983567;28;20217;-79
2023/11/02 08:55:25;;;;;;;0.50;0.50;;;;;;;;;;4975789;28;20232;-80
2023/11/02 08:57:52;;;;;;;1.53;0.60;;;;;;;;;;4968568;28;20287;-79
2023/11/02 09:00:20;;;;;;;0.90;0.70;;;;;;;;;;4960706;28;20296;-79
2023/11/02 09:02:45;;;;;;;2.90;0.90;;;;;;;;;;5001335;28;20221;-79
2023/11/02 09:05:12;;;;;;;0.57;0.57;;;;;;;;;;4984011;28;20479;-77
2023/11/02 09:07:40;;;;;;;1.33;0.70;;;;;;;;;;4960579;28;20237;-79
2023/11/02 09:10:07;;;;;;;1.07;0.73;;;;;;;;;;4982942;28;20229;-79
2023/11/02 09:12:32;;;;;;;4.67;0.80;;;;;;;;;;4988478;28;20228;-80
2023/11/02 09:15:01;;;;;;;1.30;0.67;;;;;;;;;;4988592;28;20686;-79
2023/11/02 09:17:29;;;;;;;1.80;0.80;;;;;;;;;;4972506;28;20271;-80
2023/11/02 09:19:55;;;;;;;1.77;0.73;;;;;;;;;;4991673;28;20232;-80
2023/11/02 09:22:21;;;;;;;1.70;1.40;;;;;;;;;;4979095;28;20222;-78
2023/11/02 09:24:49;;;;;;;2.23;1.10;;;;;;;;;;4992751;28;20236;-77
2023/11/02 09:27:15;;;;;;;1.23;0.80;;;;;;;;;;4993338;28;20213;-79
2023/11/02 09:29:45;;;;;;;2.23;0.70;;;;;;;;;;4967186;28;20225;-79
2023/11/02 09:32:11;;;;;;;3.00;0.80;;;;;;;;;;4993580;28;20225;-78
2023/11/02 09:34:39;;;;;;;1.17;0.70;;;;;;;;;;4996049;28;20233;-78
2023/11/02 09:37:06;;;;;;;0.97;0.80;;;;;;;;;;4993353;28;20234;-77
2023/11/02 09:39:32;;;;;;;2.37;0.77;;;;;;;;;;4994784;28;20232;-78
2023/11/02 09:42:04;;;;;;;1.97;0.60;;;;;;;;;;4992198;28;20214;-79
2023/11/02 09:44:30;;;;;;;1.27;0.63;;;;;;;;;;5010133;28;20236;-78
2023/11/02 09:46:56;;;;;;;1.90;0.90;;;;;;;;;;4992462;28;20321;-80
2023/11/02 09:49:22;;;;;;;2.73;0.57;;;;;;;;;;4958681;28;20291;-79
2023/11/02 09:51:50;;;;;;;0.73;0.67;;;;;;;;;;4994700;28;20221;-78
2023/11/02 09:54:19;;;;;;;0.83;0.73;;;;;;;;;;4960603;28;20217;-79
2023/11/02 09:56:44;;;;;;;0.67;0.60;;;;;;;;;;4988906;28;20220;-80
2023/11/02 09:59:17;;;;;;;0.50;0.50;;;;;;;;;;4958789;28;20236;-77
2023/11/02 10:01:42;;;;;;;2.40;0.80;;;;;;;;;;4978277;28;20229;-77
2023/11/02 10:04:11;;;;;;;2.27;1.60;;;;;;;;;;4978600;28;20304;-77
2023/11/02 10:06:36;;;;;;;0.67;0.53;;;;;;;;;;4993921;28;20217;-79
2023/11/02 10:09:08;;;;;;;0.93;0.80;;;;;;;;;;4978720;28;20312;-78
2023/11/02 10:11:41;;;;;;;1.30;0.60;;;;;;;;;;5008133;28;20224;-78
2023/11/02 10:14:07;;;;;;;1.47;0.80;;;;;;;;;;4988750;28;20228;-76
2023/11/02 10:16:32;;;;;;;0.73;0.60;;;;;;;;;;4996293;28;20225;-77
2023/11/02 10:19:02;;;;;;;0.60;0.47;;;;;;;;;;4984467;28;20209;-78
2023/11/02 10:21:30;;;;;;;1.50;0.70;;;;;;;;;;4966565;28;20232;-77
2023/11/02 10:24:01;;;;;;;0.77;0.50;;;;;;;;;;4997439;28;20297;-77
2023/11/02 10:26:29;;;;;;;0.70;0.60;;;;;;;;;;4983766;28;20225;-78
2023/11/02 10:28:56;;;;;;;0.43;0.40;;;;;;;;;;4983844;28;20249;-77
2023/11/02 10:31:27;;;;;;;0.70;0.50;;;;;;;;;;4976124;28;20236;-78
2023/11/02 10:33:52;;;;;;;3.50;0.60;;;;;;;;;;4980037;28;20682;-78
2023/11/02 10:36:32;;;;;;;1.53;0.60;;;;;;;;;;4989867;28;20957;-78
2023/11/02 10:39:00;;;;;;;0.93;0.50;;;;;;;;;;4964196;28;20298;-76
2023/11/02 10:41:26;;;;;;;0.50;0.40;;;;;;;;;;4992601;28;20222;-78
2023/11/02 10:43:52;;;;;;;0.40;0.40;;;;;;;;;;4982986;28;20244;-78
2023/11/02 10:46:20;;;;;;;3.43;0.60;;;;;;;;;;4986468;28;20264;-77
2023/11/02 10:48:45;;;;;;;0.30;0.30;;;;;;;;;;4980097;28;20272;-77
2023/11/02 10:51:16;;;;;;;0.50;0.27;;;;;;;;;;4995129;28;20217;-79
2023/11/02 10:53:50;;;;;;;0.33;0.33;;;;;;;;;;4977709;28;20229;-80
2023/11/02 10:56:20;;;;;;;0.70;0.33;;;;;;;;;;4972363;28;20224;-78
2023/11/02 10:58:48;;;;;;;0.83;0.53;;;;;;;;;;4996535;28;20240;-79
2023/11/02 11:01:17;;;;;;;0.70;0.60;;;;;;;;;;4994789;28;20218;-77
2023/11/02 11:03:46;;;;;;;0.87;0.40;;;;;;;;;;4960356;28;20312;-78
2023/11/02 11:06:12;;;;;;;0.40;0.40;;;;;;;;;;4993127;28;20229;-78
2023/11/02 11:08:38;;;;;;;0.77;0.53;;;;;;;;;;4975072;28;20252;-80
2023/11/02 11:11:06;;;;;;;2.43;0.60;;;;;;;;;;4974545;28;20228;-79
2023/11/02 11:13:32;;;;;;;0.53;0.53;;;;;;;;;;4957802;28;20222;-79
2023/11/02 11:16:02;;;;;;;0.37;0.37;;;;;;;;;;4973017;28;20224;-78
2023/11/02 11:18:30;;;;;;;0.47;0.47;;;;;;;;;;4974659;28;20332;-78
2023/11/02 11:20:55;;;;;;;0.40;0.40;;;;;;;;;;4958586;28;20979;-77
2023/11/02 11:23:23;;;;;;;1.60;0.47;;;;;;;;;;4975195;28;20665;-78
2023/11/02 11:26:04;;;;;;;1.27;0.47;;;;;;;;;;4986130;28;20313;-79
2023/11/02 11:28:34;;;;;;;0.50;0.50;;;;;;;;;;4965372;28;20245;-79
2023/11/02 11:31:09;;;;;;;1.70;0.30;;;;;;;;;;5000692;28;20221;-78
2023/11/02 11:33:44;;;;;;;0.40;0.40;;;;;;;;;;5001074;28;20209;-76
2023/11/02 11:36:21;;;;;;;0.40;0.40;;;;;;;;;;5001984;28;20308;-78
2023/11/02 11:38:47;;;;;;;1.57;0.40;;;;;;;;;;5000271;28;21013;-80
2023/11/02 11:41:53;;;;;;;1.33;0.60;;;;;;;;;;4994412;28;20407;-79
2023/11/02 11:44:20;;;;;;;0.80;0.50;;;;;;;;;;4964999;28;20260;-80
2023/11/02 11:46:52;;;;;;;0.40;0.40;;;;;;;;;;4971695;28;20267;-81
2023/11/02 11:49:36;;;;;;;1.50;1.40;;;;;;;;;;4986171;28;20237;-78
2023/11/02 11:52:02;;;;;;;0.63;0.43;;;;;;;;;;4977965;28;20256;-80
2023/11/02 11:54:28;;;;;;;1.00;0.67;;;;;;;;;;4975616;28;20841;-80
2023/11/02 11:56:56;;;;;;;4.97;3.77;;;;;;;;;;4957450;28;20226;-79
2023/11/02 11:59:56;;;;;;;0.77;0.40;;;;;;;;;;4994912;28;20257;-79
2023/11/02 12:02:38;;;;;;;10.53;6.37;;;;;;;;;;4996758;28;20268;-78
2023/11/02 12:05:07;;;;;;;16.23;11.87;;;;;;;;;;4992548;28;20241;-77
2023/11/02 12:07:33;;;;;;;4.37;3.00;;;;;;;;;;4980695;28;20260;-78
2023/11/02 12:10:03;;;;;;;1.30;0.70;;;;;;;;;;4971528;28;20276;-78
2023/11/02 12:12:29;;;;;;;0.40;0.40;;;;;;;;;;4966253;28;20226;-79
2023/11/02 12:14:55;;;;;;;1.20;0.60;;;;;;;;;;5000664;28;20232;-79
2023/11/02 12:17:20;;;;;;;0.90;0.53;;;;;;;;;;4981399;28;20236;-77
2023/11/02 12:19:48;;;;;;;0.60;0.50;;;;;;;;;;4962822;28;20248;-79
2023/11/02 12:22:14;;;;;;;1.33;0.40;;;;;;;;;;4992614;28;20221;-79
2023/11/02 12:24:39;;;;;;;0.50;0.50;;;;;;;;;;4987776;28;20989;-79
2023/11/02 12:27:12;;;;;;;1.23;0.50;;;;;;;;;;4971065;28;20229;-79
2023/11/02 12:29:55;;;;;;;0.50;0.40;;;;;;;;;;4993279;28;20224;-79
2023/11/02 12:32:20;;;;;;;0.33;0.30;;;;;;;;;;4971857;28;20217;-79
2023/11/02 12:34:46;;;;;;;0.40;0.40;;;;;;;;;;4975411;28;20222;-77
2023/11/02 12:37:14;;;;;;;0.30;0.30;;;;;;;;;;4976642;28;20232;-79
2023/11/02 12:39:56;;;;;;;0.30;0.30;;;;;;;;;;4993677;28;20312;-80
2023/11/02 12:42:23;;;;;;;0.67;0.37;;;;;;;;;;4976086;28;20229;-80
2023/11/02 12:44:59;;;;;;;0.40;0.40;;;;;;;;;;4994061;28;20248;-82
2023/11/02 12:47:35;;;;;;;0.93;0.60;;;;;;;;;;4991713;28;20321;-77
2023/11/02 12:50:01;;;;;;;0.83;0.60;;;;;;;;;;4960645;28;20732;-79
2023/11/02 12:52:39;;;;;;;0.87;0.60;;;;;;;;;;4990608;28;20214;-80
2023/11/02 12:55:05;;;;;;;0.80;0.50;;;;;;;;;;4979800;28;20228;-81
2023/11/02 12:57:40;;;;;;;0.60;0.60;;;;;;;;;;4965541;28;20221;-82
2023/11/02 13:00:14;;;;;;;0.53;0.40;;;;;;;;;;4979102;28;20629;-80
2023/11/02 13:02:39;;;;;;;0.53;0.40;;;;;;;;;;4966741;28;20671;-80
2023/11/02 13:05:06;;;;;;;0.90;0.40;;;;;;;;;;4998369;28;20260;-79
2023/11/02 13:07:33;;;;;;;0.60;0.40;;;;;;;;;;4993375;28;20266;-80
2023/11/02 13:10:02;;;;;;;1.33;0.53;;;;;;;;;;4959442;28;20218;-81
2023/11/02 13:12:30;;;;;;;1.27;0.50;;;;;;;;;;4974792;28;20221;-80
2023/11/02 13:14:58;;;;;;;0.87;0.50;;;;;;;;;;4976704;28;20225;-79
2023/11/02 13:17:24;;;;;;;2.33;0.70;;;;;;;;;;4958840;28;20236;-78
2023/11/02 13:19:51;;;;;;;0.83;0.53;;;;;;;;;;4990438;28;20227;-77
2023/11/02 13:22:19;;;;;;;1.33;0.60;;;;;;;;;;5005692;28;20213;-77
2023/11/02 13:24:47;;;;;;;0.47;0.47;;;;;;;;;;4990838;28;20233;-80
2023/11/02 13:27:13;;;;;;;0.30;0.30;;;;;;;;;;4975345;28;20243;-79
2023/11/02 13:29:41;;;;;;;0.50;0.40;;;;;;;;;;4975249;28;20221;-79
2023/11/02 13:32:06;;;;;;;2.10;0.30;;;;;;;;;;4972411;28;20260;-79
2023/11/02 13:34:32;;;;;;;0.90;0.50;;;;;;;;;;4989063;28;20224;-80
2023/11/02 13:37:00;;;;;;;0.57;0.37;;;;;;;;;;4973737;28;20237;-78
2023/11/02 13:39:26;;;;;;;0.90;0.50;;;;;;;;;;4955687;28;20221;-79
2023/11/02 13:41:56;;;;;;;1.67;0.67;;;;;;;;;;4975573;28;20240;-78
2023/11/02 13:44:22;;;;;;;1.50;0.60;;;;;;;;;;4988872;28;20312;-80
2023/11/02 13:46:47;;;;;;;0.57;0.53;;;;;;;;;;4974582;28;20744;-79
2023/11/02 13:49:15;;;;;;;1.13;0.50;;;;;;;;;;4974214;28;20216;-79
2023/11/02 13:51:43;;;;;;;0.50;0.50;;;;;;;;;;4982270;28;20229;-77
2023/11/02 13:54:09;;;;;;;2.40;0.50;;;;;;;;;;4983715;28;20249;-79
2023/11/02 13:56:39;;;;;;;1.80;0.53;;;;;;;;;;4983651;28;20224;-77
2023/11/02 13:59:04;;;;;;;1.00;0.50;;;;;;;;;;4999493;28;20229;-76
2023/11/02 14:01:32;;;;;;;1.00;0.50;;;;;;;;;;5004790;28;20279;-78
2023/11/02 14:04:00;;;;;;;1.23;0.60;;;;;;;;;;4987305;28;20261;-79
2023/11/02 14:06:26;;;;;;;0.60;0.50;;;;;;;;;;5006410;28;20213;-78
2023/11/02 14:08:51;;;;;;;0.53;0.50;;;;;;;;;;5002197;28;20501;-79
2023/11/02 14:11:17;;;;;;;0.30;0.30;;;;;;;;;;4979106;28;20217;-78
2023/11/02 14:13:45;;;;;;;0.60;0.50;;;;;;;;;;4977461;28;20225;-78
2023/11/02 14:16:13;;;;;;;0.63;0.63;;;;;;;;;;4996586;28;20677;-76
2023/11/02 14:18:39;;;;;;;1.53;0.70;;;;;;;;;;4961427;28;20230;-77
2023/11/02 14:21:07;;;;;;;2.60;0.50;;;;;;;;;;4994435;28;20223;-78
2023/11/02 14:23:32;;;;;;;0.40;0.40;;;;;;;;;;4991897;28;20778;-80
2023/11/02 14:25:58;;;;;;;0.40;0.40;;;;;;;;;;4995125;28;20221;-79
2023/11/02 14:28:23;;;;;;;2.67;0.73;;;;;;;;;;4994406;28;20237;-79
2023/11/02 14:30:52;;;;;;;1.43;0.60;;;;;;;;;;4976596;28;20286;-79
2023/11/02 14:33:17;;;;;;;1.70;0.70;;;;;;;;;;4992383;28;20225;-81
2023/11/02 14:35:45;;;;;;;1.07;0.80;;;;;;;;;;4981943;28;20218;-79
2023/11/02 14:38:11;;;;;;;1.40;0.60;;;;;;;;;;4977406;28;20253;-77
2023/11/02 14:40:37;;;;;;;0.60;0.50;;;;;;;;;;4994451;28;20221;-79
2023/11/02 14:43:08;;;;;;;0.60;0.60;;;;;;;;;;4992248;28;20225;-78
2023/11/02 14:45:34;;;;;;;3.37;0.67;;;;;;;;;;5008511;28;20234;-79
2023/11/02 14:47:59;;;;;;;1.60;0.60;;;;;;;;;;4992846;28;20235;-81
2023/11/02 14:50:28;;;;;;;0.67;0.67;;;;;;;;;;4963818;28;20241;-78
2023/11/02 14:52:57;;;;;;;1.10;0.70;;;;;;;;;;4984102;28;20264;-77
2023/11/02 14:55:23;;;;;;;2.30;0.77;;;;;;;;;;4978412;28;20770;-80
2023/11/02 14:57:50;;;;;;;1.20;0.53;;;;;;;;;;4995921;28;20293;-78
2023/11/02 15:00:19;;;;;;;0.60;0.60;;;;;;;;;;4975043;28;20647;-78
2023/11/02 15:02:45;;;;;;;0.60;0.60;;;;;;;;;;4960097;28;20308;-77
2023/11/02 15:05:11;;;;;;;0.50;0.50;;;;;;;;;;4979700;28;20234;-77